createdAt,value
2023-03-17T00:39:00.722Z,314.00
2023-03-17T00:43:00.692Z,313.00
2023-03-17T00:47:00.775Z,306.00
2023-03-17T00:51:00.697Z,305.00
2023-03-17T00:55:00.678Z,309.00
2023-03-17T00:59:00.727Z,308.00
2023-03-17T01:03:00.679Z,306.00
2023-03-17T01:07:00.638Z,309.00
2023-03-17T01:11:00.681Z,311.00
2023-03-17T01:15:00.705Z,312.00
2023-03-17T01:19:00.780Z,310.00
2023-03-17T01:23:00.712Z,310.00
2023-03-17T01:27:00.682Z,309.00
2023-03-17T01:31:00.700Z,305.00
2023-03-17T01:35:00.701Z,309.00
2023-03-17T01:39:00.708Z,309.00
2023-03-17T01:43:00.784Z,307.00
2023-03-17T01:47:00.756Z,302.00
2023-03-17T01:51:00.784Z,308.00
2023-03-17T01:55:00.774Z,308.00
2023-03-17T01:59:00.843Z,306.00
2023-03-17T02:03:00.870Z,307.00
2023-03-17T02:07:00.906Z,309.00
2023-03-17T02:11:00.982Z,305.00
2023-03-17T02:15:01.016Z,306.00
2023-03-17T02:19:01.103Z,309.00
2023-03-17T02:23:01.168Z,314.00
2023-03-17T02:27:01.213Z,306.00
2023-03-17T02:31:01.312Z,305.00
2023-03-17T02:35:01.281Z,306.00
2023-03-17T02:39:01.402Z,302.00
2023-03-17T02:43:01.451Z,300.00
2023-03-17T02:47:01.539Z,299.00
2023-03-17T02:51:01.494Z,303.00
2023-03-17T02:55:01.529Z,302.00
2023-03-17T02:59:01.640Z,302.00
2023-03-17T03:03:01.648Z,302.00
2023-03-17T03:07:01.721Z,305.00
2023-03-17T03:11:01.840Z,298.00
2023-03-17T03:15:02.313Z,302.00
2023-03-17T03:19:01.893Z,301.00
2023-03-17T03:23:01.948Z,301.00
2023-03-17T03:27:02.070Z,307.00
2023-03-17T03:31:02.173Z,304.00
2023-03-17T03:35:02.204Z,304.00
2023-03-17T03:39:02.346Z,303.00
2023-03-17T03:43:10.186Z,300.00
2023-03-17T03:47:03.372Z,304.00
2023-03-17T03:51:02.315Z,303.00
2023-03-17T03:55:02.264Z,304.00
2023-03-17T03:59:02.232Z,303.00
2023-03-17T04:03:02.244Z,305.00
2023-03-17T04:07:02.316Z,305.00
2023-03-17T04:11:02.400Z,307.00
2023-03-17T04:15:02.543Z,305.00
2023-03-17T04:19:02.740Z,303.00
2023-03-17T04:23:02.740Z,302.00
2023-03-17T04:27:05.489Z,303.00
2023-03-17T04:31:02.840Z,300.00
2023-03-17T04:35:02.846Z,299.00
2023-03-17T04:39:02.765Z,299.00
2023-03-17T04:43:03.622Z,294.00
2023-03-17T04:47:02.694Z,295.00
2023-03-17T04:51:02.637Z,296.00
2023-03-17T04:55:02.599Z,304.00
2023-03-17T04:59:02.562Z,300.00
2023-03-17T05:03:02.871Z,301.00
2023-03-17T05:07:02.557Z,302.00
2023-03-17T05:11:02.481Z,303.00
2023-03-17T05:15:02.401Z,301.00
2023-03-17T05:19:02.877Z,306.00
2023-03-17T05:23:02.329Z,302.00
2023-03-17T05:27:02.388Z,307.00
2023-03-17T05:31:02.463Z,302.00
2023-03-17T05:35:02.596Z,303.00
2023-03-17T05:39:02.683Z,306.00
2023-03-17T05:43:02.850Z,307.00
2023-03-17T05:47:03.012Z,304.00
2023-03-17T05:51:03.146Z,299.00
2023-03-17T05:55:03.240Z,298.00
2023-03-17T05:59:03.337Z,300.00
2023-03-17T06:03:03.427Z,302.00
2023-03-17T06:07:03.575Z,300.00
2023-03-17T06:11:03.574Z,301.00
2023-03-17T06:15:03.658Z,306.00
2023-03-17T06:19:03.790Z,305.00
2023-03-17T06:23:05.913Z,304.00
2023-03-17T06:27:03.999Z,305.00
2023-03-17T06:31:07.032Z,304.00
2023-03-17T06:35:03.999Z,316.00
2023-03-17T06:39:03.991Z,443.00
2023-03-17T06:43:03.885Z,491.00
2023-03-17T06:47:03.924Z,511.00
2023-03-17T06:51:03.848Z,494.00
2023-03-17T06:55:03.831Z,613.00
2023-03-17T06:59:03.788Z,657.00
2023-03-17T07:03:03.768Z,684.00
2023-03-17T07:07:03.761Z,677.00
2023-03-17T07:11:03.672Z,654.00
2023-03-17T07:15:03.601Z,623.00
2023-03-17T07:19:03.576Z,595.00
2023-03-17T07:23:03.553Z,605.00
2023-03-17T07:27:03.694Z,605.00
2023-03-17T07:31:03.673Z,599.00
2023-03-17T07:35:03.629Z,591.00
2023-03-17T07:39:03.554Z,589.00
2023-03-17T07:43:03.526Z,579.00
2023-03-17T07:47:03.490Z,564.00
2023-03-17T07:51:03.465Z,577.00
2023-03-17T07:55:03.405Z,633.00
2023-03-17T07:59:03.396Z,669.00
2023-03-17T08:03:10.380Z,697.00
2023-03-17T08:07:04.312Z,670.00
2023-03-17T08:11:03.333Z,624.00
2023-03-17T08:15:03.241Z,585.00
2023-03-17T08:19:03.164Z,555.00
2023-03-17T08:23:03.120Z,527.00
2023-03-17T08:27:03.056Z,500.00
2023-03-17T08:31:03.220Z,476.00
2023-03-17T08:35:03.150Z,449.00
2023-03-17T08:39:03.153Z,436.00
2023-03-17T08:43:03.067Z,418.00
2023-03-17T08:47:03.087Z,414.00
2023-03-17T08:51:03.017Z,410.00
2023-03-17T08:55:02.969Z,410.00
2023-03-17T08:59:02.923Z,414.00
2023-03-17T09:03:02.941Z,407.00
2023-03-17T09:07:04.349Z,408.00
2023-03-17T09:11:02.879Z,408.00
2023-03-17T09:15:02.781Z,406.00
2023-03-17T09:19:02.729Z,405.00
2023-03-17T09:23:02.730Z,403.00
2023-03-17T09:27:02.671Z,405.00
2023-03-17T09:31:02.679Z,398.00
2023-03-17T09:35:02.611Z,401.00
2023-03-17T09:39:02.546Z,401.00
2023-03-17T09:43:02.748Z,395.00
2023-03-17T09:47:02.685Z,391.00
2023-03-17T09:51:03.003Z,388.00
2023-03-17T09:55:02.581Z,386.00
2023-03-17T09:59:02.617Z,389.00
2023-03-17T10:03:02.594Z,383.00
2023-03-17T10:07:02.523Z,383.00
2023-03-17T10:11:02.468Z,387.00
2023-03-17T10:15:02.474Z,384.00
2023-03-17T10:19:02.481Z,383.00
2023-03-17T10:23:02.377Z,379.00
2023-03-17T10:27:02.320Z,376.00
2023-03-17T10:31:02.407Z,370.00
2023-03-17T10:35:02.284Z,375.00
2023-03-17T10:39:02.247Z,372.00
2023-03-17T10:43:02.175Z,371.00
2023-03-17T10:47:02.243Z,368.00
2023-03-17T10:51:02.154Z,366.00
2023-03-17T10:55:02.272Z,370.00
2023-03-17T10:59:02.550Z,370.00
2023-03-17T11:03:02.153Z,368.00
2023-03-17T11:07:02.227Z,364.00
2023-03-17T11:11:02.581Z,363.00
2023-03-17T11:15:02.085Z,367.00
2023-03-17T11:19:02.077Z,411.00
2023-03-17T11:23:02.135Z,394.00
2023-03-17T11:27:02.008Z,396.00
2023-03-17T11:31:01.910Z,401.00
2023-03-17T11:35:01.917Z,410.00
2023-03-17T11:39:01.894Z,413.00
2023-03-17T11:43:01.838Z,413.00
2023-03-17T11:47:01.900Z,480.00
2023-03-17T11:51:02.118Z,547.00
2023-03-17T11:55:02.134Z,479.00
2023-03-17T11:59:02.221Z,451.00
2023-03-17T12:03:02.430Z,409.00
2023-03-17T12:07:02.401Z,376.00
2023-03-17T12:11:02.522Z,374.00
2023-03-17T12:15:02.528Z,378.00
2023-03-17T12:19:02.628Z,435.00
2023-03-17T12:23:02.587Z,412.00
2023-03-17T12:27:02.740Z,411.00
2023-03-17T12:31:02.675Z,418.00
2023-03-17T12:35:02.798Z,401.00
2023-03-17T12:39:02.970Z,385.00
2023-03-17T12:43:02.926Z,370.00
2023-03-17T12:47:02.888Z,361.00
2023-03-17T12:51:02.879Z,352.00
2023-03-17T12:55:02.809Z,346.00
2023-03-17T12:59:02.798Z,338.00
2023-03-17T13:03:02.795Z,360.00
2023-03-17T13:07:02.741Z,363.00
2023-03-17T13:11:02.665Z,393.00
2023-03-17T13:15:02.669Z,408.00
2023-03-17T13:19:02.608Z,426.00
2023-03-17T13:23:02.585Z,438.00
2023-03-17T13:27:02.553Z,435.00
2023-03-17T13:31:02.490Z,429.00
2023-03-17T13:35:02.456Z,431.00
2023-03-17T13:39:18.139Z,436.00
2023-03-17T13:43:03.547Z,428.00
2023-03-17T13:47:02.568Z,425.00
2023-03-17T13:51:02.488Z,424.00
2023-03-17T13:55:02.425Z,425.00
2023-03-17T13:59:02.528Z,428.00
2023-03-17T14:03:02.528Z,430.00
2023-03-17T14:07:02.469Z,426.00
2023-03-17T14:11:02.440Z,422.00
2023-03-17T14:15:02.451Z,412.00
2023-03-17T14:19:02.501Z,417.00
2023-03-17T14:23:02.524Z,423.00
2023-03-17T14:27:02.549Z,429.00
2023-03-17T14:31:02.574Z,426.00
2023-03-17T14:35:02.614Z,429.00
2023-03-17T14:39:02.615Z,429.00
2023-03-17T14:43:02.619Z,428.00
2023-03-17T14:47:02.600Z,444.00
2023-03-17T14:51:02.583Z,455.00
2023-03-17T14:55:02.587Z,436.00
2023-03-17T14:59:02.562Z,422.00
2023-03-17T15:03:02.568Z,406.00
2023-03-17T15:07:02.642Z,395.00
2023-03-17T15:11:02.645Z,382.00
2023-03-17T15:15:02.674Z,371.00
2023-03-17T15:19:02.712Z,359.00
2023-03-17T15:23:02.735Z,352.00
2023-03-17T15:27:02.759Z,351.00
2023-03-17T15:31:02.886Z,347.00
2023-03-17T15:35:02.869Z,344.00
2023-03-17T15:39:02.941Z,345.00
2023-03-17T15:43:02.988Z,345.00
2023-03-17T15:47:03.065Z,346.00
2023-03-17T15:51:03.116Z,348.00
2023-03-17T15:55:05.094Z,351.00
2023-03-17T15:59:03.049Z,347.00
2023-03-17T16:03:02.972Z,348.00
2023-03-17T16:07:02.968Z,344.00
2023-03-17T16:11:02.906Z,345.00
2023-03-17T16:15:10.353Z,342.00
2023-03-17T16:19:03.801Z,340.00
2023-03-17T16:23:02.816Z,337.00
2023-03-17T16:27:02.752Z,331.00
2023-03-17T16:31:02.787Z,336.00
2023-03-17T16:35:02.754Z,332.00
2023-03-17T16:39:02.883Z,334.00
2023-03-17T16:43:03.942Z,339.00
2023-03-17T16:47:03.156Z,334.00
2023-03-17T16:51:02.906Z,332.00
2023-03-17T16:55:02.884Z,333.00
2023-03-17T16:59:02.925Z,328.00
2023-03-17T17:03:02.912Z,332.00
2023-03-17T17:07:02.882Z,332.00
2023-03-17T17:11:02.740Z,332.00
2023-03-17T17:15:02.736Z,327.00
2023-03-17T17:19:02.745Z,325.00
2023-03-17T17:23:02.795Z,323.00
2023-03-17T17:27:02.905Z,326.00
2023-03-17T17:31:03.149Z,329.00
2023-03-17T17:35:03.071Z,329.00
2023-03-17T17:39:03.020Z,326.00
2023-03-17T17:43:03.015Z,324.00
2023-03-17T17:47:02.994Z,322.00
2023-03-17T17:51:02.902Z,325.00
2023-03-17T17:55:02.888Z,323.00
2023-03-17T17:59:02.849Z,321.00
2023-03-17T18:03:02.841Z,323.00
2023-03-17T18:07:02.824Z,325.00
2023-03-17T18:11:02.835Z,324.00
2023-03-17T18:15:03.054Z,321.00
2023-03-17T18:19:03.099Z,326.00
2023-03-17T18:23:03.023Z,330.00
2023-03-17T18:27:02.944Z,324.00
2023-03-17T18:31:02.918Z,325.00
2023-03-17T18:35:02.888Z,335.00
2023-03-17T18:39:02.831Z,342.00
2023-03-17T18:43:02.810Z,335.00
2023-03-17T18:47:02.781Z,331.00
2023-03-17T18:51:02.746Z,324.00
2023-03-17T18:55:02.715Z,321.00
2023-03-17T18:59:02.692Z,322.00
2023-03-17T19:03:02.883Z,318.00
2023-03-17T19:07:02.962Z,320.00
2023-03-17T19:11:03.297Z,321.00
2023-03-17T19:15:03.194Z,315.00
2023-03-17T19:19:03.172Z,315.00
2023-03-17T19:23:03.176Z,313.00
2023-03-17T19:27:03.178Z,312.00
2023-03-17T19:31:03.222Z,312.00
2023-03-17T19:35:03.160Z,311.00
2023-03-17T19:39:03.197Z,315.00
2023-03-17T19:43:03.193Z,316.00
2023-03-17T19:47:03.114Z,314.00
2023-03-17T19:51:03.086Z,308.00
2023-03-17T19:55:03.126Z,316.00
2023-03-17T19:59:03.093Z,314.00
2023-03-17T20:03:03.083Z,315.00
2023-03-17T20:07:03.056Z,315.00
2023-03-17T20:11:03.019Z,317.00
2023-03-17T20:15:03.035Z,312.00
2023-03-17T20:19:03.043Z,312.00
2023-03-17T20:23:03.000Z,312.00
2023-03-17T20:27:03.017Z,311.00
2023-03-17T20:31:03.188Z,307.00
2023-03-17T20:35:03.008Z,305.00
2023-03-17T20:39:02.969Z,304.00
2023-03-17T20:43:02.964Z,304.00
2023-03-17T20:47:02.947Z,309.00
2023-03-17T20:51:02.972Z,306.00
2023-03-17T20:55:02.989Z,309.00
2023-03-17T20:59:03.059Z,310.00
2023-03-17T21:03:03.086Z,304.00
2023-03-17T21:07:03.098Z,303.00
2023-03-17T21:11:03.123Z,307.00
2023-03-17T21:15:03.209Z,306.00
2023-03-17T21:19:03.265Z,307.00
2023-03-17T21:23:03.383Z,307.00
2023-03-17T21:27:03.432Z,305.00
2023-03-17T21:31:03.500Z,308.00
2023-03-17T21:35:03.592Z,308.00
2023-03-17T21:39:03.602Z,310.00
2023-03-17T21:43:03.605Z,308.00
2023-03-17T21:47:03.750Z,307.00
2023-03-17T21:51:03.789Z,308.00
2023-03-17T21:55:03.916Z,307.00
2023-03-17T21:59:04.022Z,307.00
2023-03-17T22:03:04.436Z,305.00
2023-03-17T22:07:04.262Z,303.00
2023-03-17T22:11:04.360Z,303.00
2023-03-17T22:15:04.517Z,299.00
2023-03-17T22:19:04.584Z,298.00
2023-03-17T22:23:04.632Z,296.00
2023-03-17T22:27:04.679Z,300.00
2023-03-17T22:31:04.753Z,305.00
2023-03-17T22:35:04.864Z,303.00
2023-03-17T22:39:04.970Z,303.00
2023-03-17T22:43:05.117Z,298.00
2023-03-17T22:47:05.123Z,299.00
2023-03-17T22:51:05.179Z,297.00
2023-03-17T22:55:05.267Z,298.00
2023-03-17T22:59:05.304Z,292.00
2023-03-17T23:03:05.337Z,292.00
2023-03-17T23:07:05.466Z,293.00
2023-03-17T23:11:05.518Z,299.00
2023-03-17T23:15:05.707Z,300.00
2023-03-17T23:19:05.753Z,299.00
2023-03-17T23:23:05.878Z,300.00
2023-03-17T23:27:05.980Z,301.00
2023-03-17T23:31:06.198Z,300.00
2023-03-17T23:35:06.239Z,306.00
2023-03-17T23:39:06.391Z,304.00
2023-03-17T23:43:06.547Z,303.00
2023-03-17T23:47:06.730Z,298.00
2023-03-17T23:51:06.751Z,304.00
2023-03-17T23:55:07.020Z,305.00
2023-03-17T23:59:07.073Z,306.00
